createdAt,value
2022-12-08T00:02:14.835Z,-0.40
2022-12-08T00:05:20.500Z,-0.40
2022-12-08T00:08:27.078Z,-0.40
2022-12-08T00:11:14.059Z,-0.30
2022-12-08T00:14:00.782Z,-0.30
2022-12-08T00:16:47.618Z,-0.40
2022-12-08T00:19:34.401Z,-0.30
2022-12-08T00:22:21.081Z,-0.20
2022-12-08T00:25:07.919Z,-0.20
2022-12-08T00:27:54.549Z,-0.30
2022-12-08T00:30:41.837Z,-0.10
2022-12-08T00:33:28.773Z,-0.10
2022-12-08T00:36:15.707Z,-0.10
2022-12-08T00:39:02.464Z,0.70
2022-12-08T00:42:07.980Z,0.00
2022-12-08T00:44:54.751Z,-0.10
2022-12-08T00:47:41.432Z,-0.20
2022-12-08T00:50:28.137Z,-0.20
2022-12-08T00:53:14.842Z,-0.20
2022-12-08T00:56:01.514Z,-0.20
2022-12-08T00:58:48.252Z,-0.20
2022-12-08T01:01:35.180Z,-0.20
2022-12-08T01:04:22.023Z,-0.30
2022-12-08T01:07:08.889Z,-0.30
2022-12-08T01:09:55.837Z,-0.30
2022-12-08T01:12:42.541Z,-0.30
2022-12-08T01:15:29.285Z,-0.30
2022-12-08T01:18:15.948Z,-0.10
2022-12-08T01:21:06.733Z,-0.20
2022-12-08T01:23:53.912Z,-0.30
2022-12-08T01:26:40.672Z,-0.20
2022-12-08T01:29:27.722Z,-0.30
2022-12-08T01:32:14.437Z,-0.30
2022-12-08T01:35:01.713Z,-0.30
2022-12-08T01:37:49.723Z,-0.30
2022-12-08T01:40:36.405Z,-0.40
2022-12-08T01:43:23.201Z,-0.50
2022-12-08T01:46:09.926Z,-0.60
2022-12-08T01:48:59.748Z,-1.00
2022-12-08T01:51:52.597Z,-0.60
2022-12-08T01:54:49.438Z,-0.60
2022-12-08T01:57:47.393Z,-0.60
2022-12-08T02:00:34.200Z,-0.70
2022-12-08T02:03:39.656Z,-0.60
2022-12-08T02:06:27.333Z,-0.60
2022-12-08T02:09:14.458Z,-0.70
2022-12-08T02:12:01.266Z,-0.60
2022-12-08T02:14:48.073Z,-0.60
2022-12-08T02:17:55.048Z,-0.60
2022-12-08T02:21:01.926Z,-0.40
2022-12-08T02:23:54.343Z,-0.40
2022-12-08T02:27:03.244Z,-0.20
2022-12-08T02:30:08.753Z,-0.20
2022-12-08T02:33:01.721Z,-0.20
2022-12-08T02:36:07.370Z,-0.10
2022-12-08T02:39:09.960Z,-0.10
2022-12-08T02:42:02.422Z,-0.20
2022-12-08T02:44:54.554Z,-0.10
2022-12-08T02:47:41.351Z,0.00
2022-12-08T02:50:28.632Z,0.10
2022-12-08T02:56:03.966Z,0.00
2022-12-08T02:58:58.828Z,0.00
2022-12-08T03:01:53.979Z,0.00
2022-12-08T03:04:53.228Z,-0.10
2022-12-08T03:07:47.648Z,-0.20
2022-12-08T03:10:36.545Z,-0.30
2022-12-08T03:13:26.029Z,-0.40
2022-12-08T03:16:15.154Z,-0.40
2022-12-08T03:19:05.460Z,-0.50
2022-12-08T03:21:53.967Z,-0.40
2022-12-08T03:24:41.857Z,-0.30
2022-12-08T03:27:29.546Z,-0.30
2022-12-08T03:30:16.527Z,-0.30
2022-12-08T03:33:06.769Z,-0.20
2022-12-08T03:35:53.991Z,-0.20
2022-12-08T03:38:44.667Z,0.20
2022-12-08T03:41:31.315Z,-0.10
2022-12-08T03:44:18.028Z,-0.10
2022-12-08T03:47:04.816Z,0.00
2022-12-08T03:49:51.548Z,0.10
2022-12-08T03:52:38.189Z,0.10
2022-12-08T03:55:24.962Z,0.10
2022-12-08T03:58:11.653Z,0.10
2022-12-08T04:00:58.345Z,0.00
2022-12-08T04:03:45.044Z,-0.10
2022-12-08T04:06:31.764Z,-0.10
2022-12-08T04:09:18.448Z,-0.10
2022-12-08T04:12:05.249Z,-0.10
2022-12-08T04:14:51.921Z,-0.10
2022-12-08T04:17:38.701Z,-0.20
2022-12-08T04:20:25.373Z,-0.20
2022-12-08T04:23:13.149Z,-0.10
2022-12-08T04:25:59.829Z,-0.10
2022-12-08T04:28:46.606Z,-0.10
2022-12-08T04:31:33.379Z,-0.10
2022-12-08T04:34:20.464Z,-0.10
2022-12-08T04:37:07.176Z,-0.10
2022-12-08T04:39:53.953Z,-0.10
2022-12-08T04:42:40.633Z,-0.10
2022-12-08T04:45:27.438Z,-0.20
2022-12-08T04:48:14.295Z,-0.20
2022-12-08T04:51:00.973Z,-0.20
2022-12-08T04:53:47.649Z,-0.20
2022-12-08T04:56:34.502Z,-0.20
2022-12-08T04:59:21.215Z,-0.20
2022-12-08T05:02:08.114Z,-0.20
2022-12-08T05:04:54.855Z,0.40
2022-12-08T05:07:41.552Z,-0.20
2022-12-08T05:10:28.923Z,-0.40
2022-12-08T05:13:15.672Z,-0.40
2022-12-08T05:16:06.237Z,-0.50
2022-12-08T05:18:53.036Z,-0.50
2022-12-08T05:21:40.096Z,-0.60
2022-12-08T05:24:26.885Z,-0.40
2022-12-08T05:27:13.654Z,-0.80
2022-12-08T05:30:00.454Z,-0.80
2022-12-08T05:32:47.183Z,-0.90
2022-12-08T05:35:33.961Z,-0.50
2022-12-08T05:38:20.743Z,-1.00
2022-12-08T05:41:07.939Z,-1.00
2022-12-08T05:43:54.638Z,-1.00
2022-12-08T05:46:41.421Z,-1.10
2022-12-08T05:49:28.122Z,-1.10
2022-12-08T05:52:16.930Z,-1.10
2022-12-08T05:55:03.730Z,-1.10
2022-12-08T05:57:50.520Z,-1.00
2022-12-08T06:00:37.184Z,-0.50
2022-12-08T06:03:24.001Z,-0.60
2022-12-08T06:06:10.761Z,-1.00
2022-12-08T06:08:57.524Z,-0.90
2022-12-08T06:11:46.472Z,-1.00
2022-12-08T06:14:33.182Z,-1.00
2022-12-08T06:17:19.826Z,-0.90
2022-12-08T06:20:07.263Z,-0.90
2022-12-08T06:22:54.905Z,-0.90
2022-12-08T06:25:41.654Z,-0.80
2022-12-08T06:28:29.005Z,-0.70
2022-12-08T06:31:17.266Z,-0.70
2022-12-08T06:34:04.073Z,-0.80
2022-12-08T06:36:50.828Z,-0.80
2022-12-08T06:39:37.589Z,-0.80
2022-12-08T06:42:43.072Z,-0.80
2022-12-08T06:45:29.836Z,-0.70
2022-12-08T06:48:16.914Z,-0.60
2022-12-08T06:51:10.744Z,-0.60
2022-12-08T06:53:57.445Z,-0.40
2022-12-08T06:56:44.090Z,-0.40
2022-12-08T06:59:30.792Z,-0.40
2022-12-08T07:02:17.584Z,-0.40
2022-12-08T07:05:04.539Z,-0.50
2022-12-08T07:07:51.292Z,-0.50
2022-12-08T07:10:38.134Z,0.10
2022-12-08T07:13:24.972Z,-0.50
2022-12-08T07:16:13.062Z,-0.50
2022-12-08T07:19:00.193Z,-0.60
2022-12-08T07:21:46.946Z,-0.70
2022-12-08T07:24:33.646Z,-0.70
2022-12-08T07:27:20.361Z,-0.70
2022-12-08T07:30:07.683Z,-0.30
2022-12-08T07:32:54.538Z,-0.80
2022-12-08T07:35:46.364Z,-0.90
2022-12-08T07:38:35.933Z,-0.80
2022-12-08T07:41:23.915Z,-0.80
2022-12-08T07:44:11.120Z,-0.80
2022-12-08T07:46:57.879Z,-0.70
2022-12-08T07:49:44.614Z,0.10
2022-12-08T07:52:31.284Z,-0.70
2022-12-08T07:55:18.057Z,-0.80
2022-12-08T07:58:04.721Z,-0.80
2022-12-08T08:00:52.071Z,-0.80
2022-12-08T08:03:38.894Z,-0.40
2022-12-08T08:06:25.659Z,-0.70
2022-12-08T08:09:12.401Z,-0.70
2022-12-08T08:12:28.984Z,-0.60
2022-12-08T08:15:07.545Z,-0.60
2022-12-08T08:17:54.265Z,-0.50
2022-12-08T08:20:41.044Z,-0.30
2022-12-08T08:23:28.056Z,0.40
2022-12-08T08:26:14.897Z,0.00
2022-12-08T08:29:01.648Z,0.20
2022-12-08T08:31:48.348Z,0.30
2022-12-08T08:34:35.081Z,0.50
2022-12-08T08:37:21.747Z,0.80
2022-12-08T08:40:08.854Z,1.00
2022-12-08T08:42:55.572Z,1.30
2022-12-08T08:45:42.268Z,1.50
2022-12-08T08:48:29.939Z,1.70
2022-12-08T08:51:16.864Z,1.90
2022-12-08T08:54:03.589Z,2.10
2022-12-08T08:56:50.378Z,2.20
2022-12-08T08:59:37.030Z,2.30
2022-12-08T09:02:24.048Z,2.60
2022-12-08T09:05:10.781Z,2.70
2022-12-08T09:07:57.555Z,2.50
2022-12-08T09:10:44.280Z,2.10
2022-12-08T09:13:31.016Z,2.40
2022-12-08T09:16:18.295Z,1.90
2022-12-08T09:19:05.052Z,2.00
2022-12-08T09:21:51.784Z,2.20
2022-12-08T09:24:38.579Z,2.50
2022-12-08T09:27:25.236Z,2.10
2022-12-08T09:30:12.307Z,2.20
2022-12-08T09:32:59.162Z,2.40
2022-12-08T09:35:45.911Z,2.60
2022-12-08T09:38:32.630Z,3.20
2022-12-08T09:41:29.332Z,2.90
2022-12-08T09:44:18.848Z,3.20
2022-12-08T09:47:11.545Z,3.40
2022-12-08T09:50:01.222Z,3.90
2022-12-08T09:52:53.353Z,3.80
2022-12-08T09:55:43.226Z,4.60
2022-12-08T09:58:47.610Z,4.20
2022-12-08T10:01:38.337Z,4.20
2022-12-08T10:04:25.153Z,4.30
2022-12-08T10:07:18.059Z,4.60
2022-12-08T10:10:12.558Z,4.90
2022-12-08T10:13:25.258Z,5.20
2022-12-08T10:16:29.819Z,5.40
2022-12-08T10:19:24.618Z,5.30
2022-12-08T10:22:15.286Z,5.10
2022-12-08T10:25:31.524Z,5.30
2022-12-08T10:28:18.295Z,4.90
2022-12-08T10:31:05.154Z,4.90
2022-12-08T10:34:00.156Z,4.80
2022-12-08T10:36:49.796Z,4.80
2022-12-08T10:39:41.175Z,4.70
2022-12-08T10:42:32.829Z,4.10
2022-12-08T10:45:30.728Z,4.10
2022-12-08T10:48:28.179Z,3.70
2022-12-08T10:51:28.981Z,3.50
2022-12-08T10:54:29.409Z,3.50
2022-12-08T10:57:24.972Z,3.60
2022-12-08T11:00:15.686Z,3.50
2022-12-08T11:03:04.995Z,3.50
2022-12-08T11:05:55.422Z,3.40
2022-12-08T11:08:49.041Z,3.20
2022-12-08T11:11:52.297Z,3.10
2022-12-08T11:14:45.969Z,3.20
2022-12-08T11:17:39.332Z,3.20
2022-12-08T11:20:28.015Z,3.20
2022-12-08T11:23:21.809Z,3.10
2022-12-08T11:26:21.950Z,3.00
2022-12-08T11:29:10.929Z,3.00
2022-12-08T11:32:02.044Z,3.00
2022-12-08T11:35:01.623Z,3.50
2022-12-08T11:37:49.914Z,3.20
2022-12-08T11:40:37.992Z,3.30
2022-12-08T11:43:35.944Z,3.40
2022-12-08T11:46:48.728Z,3.50
2022-12-08T11:49:41.098Z,3.60
2022-12-08T11:52:29.765Z,3.60
2022-12-08T11:55:38.992Z,3.60
2022-12-08T11:58:31.879Z,3.50
2022-12-08T12:01:21.982Z,3.40
2022-12-08T12:04:14.748Z,3.90
2022-12-08T12:07:26.183Z,3.30
2022-12-08T12:10:31.939Z,3.20
2022-12-08T12:13:27.987Z,3.20
2022-12-08T12:16:36.159Z,3.20
2022-12-08T12:19:24.985Z,3.30
2022-12-08T12:22:16.277Z,3.30
2022-12-08T12:25:05.100Z,3.30
2022-12-08T12:27:57.090Z,3.30
2022-12-08T12:30:55.930Z,3.20
2022-12-08T12:33:43.473Z,3.20
2022-12-08T12:36:33.951Z,3.30
2022-12-08T12:39:22.127Z,3.10
2022-12-08T12:42:10.936Z,3.10
2022-12-08T12:45:13.021Z,3.10
2022-12-08T12:48:01.925Z,3.10
2022-12-08T12:50:49.494Z,3.20
2022-12-08T12:53:37.936Z,3.70
2022-12-08T12:56:48.273Z,3.20
2022-12-08T12:59:43.915Z,3.30
2022-12-08T13:02:30.656Z,3.30
2022-12-08T13:05:20.958Z,3.30
2022-12-08T13:08:16.559Z,3.30
2022-12-08T13:11:06.990Z,3.40
2022-12-08T13:13:58.034Z,3.70
2022-12-08T13:16:45.967Z,3.40
2022-12-08T13:19:33.061Z,3.60
2022-12-08T13:22:40.076Z,3.50
2022-12-08T13:25:39.022Z,3.50
2022-12-08T13:28:28.897Z,3.60
2022-12-08T13:31:34.228Z,3.60
2022-12-08T13:34:28.080Z,3.60
2022-12-08T13:37:20.974Z,3.60
2022-12-08T13:40:29.905Z,3.70
2022-12-08T13:43:36.210Z,3.70
2022-12-08T13:57:00.981Z,3.70
2022-12-08T13:59:35.931Z,3.60
2022-12-08T14:02:39.544Z,3.60
2022-12-08T14:06:10.439Z,3.60
2022-12-08T14:09:00.999Z,3.60
2022-12-08T14:11:56.876Z,3.50
2022-12-08T14:15:02.436Z,3.50
2022-12-08T14:17:55.966Z,3.50
2022-12-08T14:21:05.047Z,3.40
2022-12-08T14:23:50.897Z,3.90
2022-12-08T14:26:38.057Z,3.40
2022-12-08T14:29:38.951Z,3.80
2022-12-08T14:32:27.739Z,3.40
2022-12-08T14:35:29.886Z,3.30
2022-12-08T14:38:17.984Z,3.30
2022-12-08T14:41:10.897Z,3.30
2022-12-08T14:43:58.656Z,3.20
2022-12-08T14:47:05.727Z,3.20
2022-12-08T14:49:52.710Z,3.30
2022-12-08T14:52:44.869Z,3.10
2022-12-08T14:55:35.435Z,3.30
2022-12-08T14:58:30.870Z,3.00
2022-12-08T15:01:21.721Z,3.00
2022-12-08T15:04:17.914Z,3.00
2022-12-08T15:07:07.731Z,2.90
2022-12-08T15:10:11.884Z,2.80
2022-12-08T15:13:10.772Z,2.90
2022-12-08T15:15:59.877Z,2.80
2022-12-08T15:18:51.998Z,2.70
2022-12-08T15:21:40.863Z,2.70
2022-12-08T15:24:29.665Z,2.70
2022-12-08T15:27:19.865Z,2.70
2022-12-08T15:30:07.160Z,2.60
2022-12-08T15:32:57.823Z,2.60
2022-12-08T15:35:45.031Z,2.60
2022-12-08T15:38:32.926Z,2.60
2022-12-08T15:41:19.622Z,2.50
2022-12-08T15:44:07.851Z,2.50
2022-12-08T15:46:55.038Z,2.50
2022-12-08T15:49:44.942Z,2.50
2022-12-08T15:52:31.564Z,2.40
2022-12-08T15:55:20.869Z,2.50
2022-12-08T16:01:17.908Z,2.40
2022-12-08T16:07:22.146Z,2.40
2022-12-08T16:10:19.825Z,2.30
2022-12-08T16:16:43.544Z,2.30
2022-12-08T16:19:31.893Z,2.30
2022-12-08T16:25:36.338Z,2.20
2022-12-08T16:31:41.896Z,2.20
2022-12-08T16:34:28.634Z,2.10
2022-12-08T16:37:17.881Z,2.10
2022-12-08T16:40:05.174Z,2.00
2022-12-08T16:42:53.864Z,2.00
2022-12-08T16:45:44.966Z,1.90
2022-12-08T16:48:33.821Z,1.80
2022-12-08T16:51:26.547Z,1.80
2022-12-08T16:54:14.807Z,1.80
2022-12-08T16:57:01.501Z,1.70
2022-12-08T16:59:49.916Z,1.70
2022-12-08T17:02:36.693Z,1.70
2022-12-08T17:05:25.889Z,1.70
2022-12-08T17:08:14.060Z,1.60
2022-12-08T17:11:13.802Z,1.60
2022-12-08T17:14:01.928Z,1.50
2022-12-08T17:16:49.864Z,1.50
2022-12-08T17:19:36.639Z,2.00
2022-12-08T17:22:24.772Z,1.40
2022-12-08T17:25:11.695Z,1.30
2022-12-08T17:27:59.802Z,1.10
2022-12-08T17:30:46.443Z,1.40
2022-12-08T17:33:34.830Z,1.30
2022-12-08T17:36:23.481Z,1.30
2022-12-08T17:39:18.339Z,1.20
2022-12-08T17:42:06.041Z,1.20
2022-12-08T17:44:54.777Z,1.10
2022-12-08T17:47:41.477Z,1.10
2022-12-08T17:50:29.788Z,1.10
2022-12-08T17:53:16.465Z,1.20
2022-12-08T17:56:04.819Z,1.20
2022-12-08T17:58:54.763Z,1.20
2022-12-08T18:01:44.888Z,1.20
2022-12-08T18:04:31.671Z,1.20
2022-12-08T18:07:19.765Z,1.00
2022-12-08T18:10:06.945Z,0.90
2022-12-08T18:12:55.803Z,0.90
2022-12-08T18:15:42.552Z,1.10
2022-12-08T18:18:30.768Z,0.70
2022-12-08T18:21:23.384Z,0.70
2022-12-08T18:24:17.893Z,0.70
2022-12-08T18:27:04.601Z,0.60
2022-12-08T18:29:52.836Z,0.60
2022-12-08T18:32:39.499Z,0.70
2022-12-08T18:35:28.787Z,0.70
2022-12-08T18:38:15.495Z,0.60
2022-12-08T18:41:10.846Z,0.60
2022-12-08T18:43:57.484Z,0.50
2022-12-08T18:46:45.787Z,0.50
2022-12-08T18:49:32.473Z,0.40
2022-12-08T18:52:28.145Z,0.40
2022-12-08T18:55:18.354Z,0.30
2022-12-08T18:58:06.771Z,0.30
2022-12-08T19:00:53.501Z,0.30
2022-12-08T19:03:48.837Z,0.30
2022-12-08T19:06:45.506Z,0.20
2022-12-08T19:09:32.342Z,0.20
2022-12-08T19:12:18.995Z,0.20
2022-12-08T19:15:06.272Z,0.20
2022-12-08T19:17:53.119Z,0.20
2022-12-08T19:20:39.828Z,0.10
2022-12-08T19:23:26.575Z,0.10
2022-12-08T19:26:13.324Z,0.00
2022-12-08T19:29:00.101Z,0.00
2022-12-08T19:31:46.897Z,0.10
2022-12-08T19:34:33.792Z,0.20
2022-12-08T19:37:20.593Z,0.30
2022-12-08T19:40:26.084Z,0.70
2022-12-08T19:43:54.014Z,0.20
2022-12-08T19:46:43.613Z,0.00
2022-12-08T19:49:30.420Z,-0.20
2022-12-08T19:52:17.411Z,-0.10
2022-12-08T19:55:04.636Z,-0.10
2022-12-08T19:57:51.627Z,0.00
2022-12-08T20:00:39.035Z,0.10
2022-12-08T20:03:25.862Z,0.10
2022-12-08T20:06:17.725Z,-0.10
2022-12-08T20:09:04.491Z,-0.20
2022-12-08T20:11:52.767Z,-0.30
2022-12-08T20:14:45.471Z,-0.30
2022-12-08T20:17:33.725Z,-0.20
2022-12-08T20:20:20.433Z,0.50
2022-12-08T20:23:08.717Z,-0.20
2022-12-08T20:25:55.392Z,-0.10
2022-12-08T20:28:43.762Z,-0.10
2022-12-08T20:31:31.158Z,-0.20
2022-12-08T20:34:18.732Z,-0.30
2022-12-08T20:37:05.482Z,-0.50
2022-12-08T20:39:52.755Z,-0.70
2022-12-08T20:42:39.668Z,-0.90
2022-12-08T20:45:26.363Z,-0.80
2022-12-08T20:48:13.040Z,-0.70
2022-12-08T20:50:59.772Z,-0.70
2022-12-08T20:53:46.528Z,-0.70
2022-12-08T20:56:33.531Z,-0.60
2022-12-08T20:59:20.490Z,-0.50
2022-12-08T21:02:07.340Z,-0.50
2022-12-08T21:04:54.286Z,-0.50
2022-12-08T21:07:41.306Z,-0.50
2022-12-08T21:10:28.292Z,-0.50
2022-12-08T21:13:15.097Z,-0.40
2022-12-08T21:16:01.976Z,-0.40
2022-12-08T21:18:48.934Z,-0.40
2022-12-08T21:21:35.835Z,-0.40
2022-12-08T21:24:22.602Z,-0.40
2022-12-08T21:27:09.383Z,-0.40
2022-12-08T21:29:56.498Z,-0.40
2022-12-08T21:32:43.472Z,-0.50
2022-12-08T21:35:30.354Z,-0.60
2022-12-08T21:38:17.139Z,-0.60
2022-12-08T21:41:08.941Z,-0.70
2022-12-08T21:43:56.919Z,-0.60
2022-12-08T21:46:43.731Z,-0.60
2022-12-08T21:49:30.524Z,-0.60
2022-12-08T21:52:17.251Z,-0.70
2022-12-08T21:55:04.138Z,-0.70
2022-12-08T21:57:50.892Z,-0.60
2022-12-08T22:00:38.036Z,-0.60
2022-12-08T22:03:25.162Z,-0.70
2022-12-08T22:06:13.180Z,-0.70
2022-12-08T22:09:00.177Z,-0.60
2022-12-08T22:11:47.242Z,-0.60
2022-12-08T22:14:35.922Z,-0.50
2022-12-08T22:17:22.819Z,-0.40
2022-12-08T22:20:12.914Z,-0.30
2022-12-08T22:22:59.725Z,-0.30
2022-12-08T22:25:56.832Z,-0.40
2022-12-08T22:28:44.415Z,-0.40
2022-12-08T22:31:32.973Z,-0.40
2022-12-08T22:34:19.681Z,-0.40
2022-12-08T22:37:07.693Z,-0.40
2022-12-08T22:39:54.443Z,-0.40
2022-12-08T22:42:42.917Z,-0.40
2022-12-08T22:45:29.610Z,0.00
2022-12-08T22:48:18.026Z,-0.40
2022-12-08T22:51:04.739Z,-0.40
2022-12-08T22:53:52.653Z,-0.40
2022-12-08T22:56:39.454Z,-0.40
2022-12-08T22:59:27.661Z,-0.30
2022-12-08T23:02:14.398Z,-0.30
2022-12-08T23:05:02.878Z,-0.30
2022-12-08T23:07:50.837Z,-0.30
2022-12-08T23:10:42.831Z,0.10
2022-12-08T23:13:29.533Z,-0.30
2022-12-08T23:16:18.030Z,-0.30
2022-12-08T23:19:05.006Z,0.40
2022-12-08T23:21:53.770Z,0.30
2022-12-08T23:24:40.519Z,-0.30
2022-12-08T23:27:28.638Z,-0.40
2022-12-08T23:30:15.411Z,-0.50
2022-12-08T23:33:03.738Z,-0.40
2022-12-08T23:35:57.694Z,-0.50
2022-12-08T23:38:45.668Z,-0.50
2022-12-08T23:41:32.568Z,-0.50
2022-12-08T23:44:20.715Z,-0.50
2022-12-08T23:47:07.567Z,-0.50
2022-12-08T23:49:55.683Z,-0.60
2022-12-08T23:52:42.599Z,-0.70
2022-12-08T23:55:30.806Z,-0.20
2022-12-08T23:58:17.503Z,-0.80
